Time;durP1;ratioP1;P1;durP2;ratioP2;P2;SDS_P1;SDS_P2;PMS_P1;PMS_P2;Temp;Humidity;BMP_temperature;BMP_pressure;BME280_temperature;BME280_humidity;BME280_pressure;Samples;Min_cycle;Max_cycle;Signal;HPM_P1;HPM_P2
2024/03/08 00:00:09;;;;;;;3.40;2.92;;;;;;;;;;10145123;28;20127;-76
2024/03/08 00:05:23;;;;;;;5.00;4.30;;;;;;;;;;10146655;28;20049;-76
2024/03/08 00:10:20;;;;;;;4.50;3.55;;;;;;;;;;10147235;28;20056;-76
2024/03/08 00:15:17;;;;;;;9.77;4.93;;;;;;;;;;10147554;28;20416;-76
2024/03/08 00:20:13;;;;;;;8.18;4.10;;;;;;;;;;10147321;28;20136;-76
2024/03/08 00:25:14;;;;;;;4.90;4.18;;;;;;;;;;10148096;28;20071;-76
2024/03/08 00:30:13;;;;;;;4.55;4.15;;;;;;;;;;10148268;28;20453;-76
2024/03/08 00:35:08;;;;;;;6.97;4.60;;;;;;;;;;10146966;28;20056;-76
2024/03/08 00:40:04;;;;;;;7.68;4.70;;;;;;;;;;10146476;28;20060;-77
2024/03/08 00:44:59;;;;;;;5.80;4.50;;;;;;;;;;10146667;28;20397;-76
2024/03/08 00:49:53;;;;;;;8.80;3.70;;;;;;;;;;10145920;28;20135;-76
2024/03/08 00:54:47;;;;;;;3.75;2.90;;;;;;;;;;10146190;28;20074;-76
2024/03/08 00:59:41;;;;;;;3.40;3.10;;;;;;;;;;10145874;28;20080;-75
2024/03/08 01:04:36;;;;;;;3.75;3.03;;;;;;;;;;10145508;28;20052;-75
2024/03/08 01:09:29;;;;;;;4.25;3.45;;;;;;;;;;10144875;28;20468;-76
2024/03/08 01:14:29;;;;;;;5.65;4.07;;;;;;;;;;10144545;28;20041;-77
2024/03/08 01:19:23;;;;;;;4.47;3.67;;;;;;;;;;10144268;28;20058;-75
2024/03/08 01:24:17;;;;;;;6.30;4.82;;;;;;;;;;10144305;28;20791;-75
2024/03/08 01:29:12;;;;;;;10.73;8.90;;;;;;;;;;10144408;28;20063;-76
2024/03/08 01:34:06;;;;;;;6.60;5.95;;;;;;;;;;10144176;28;20143;-75
2024/03/08 01:39:00;;;;;;;16.17;11.10;;;;;;;;;;10143972;28;20052;-76
2024/03/08 01:43:54;;;;;;;11.95;8.40;;;;;;;;;;10143572;28;20068;-76
2024/03/08 01:48:48;;;;;;;13.57;7.30;;;;;;;;;;10140545;28;20147;-75
2024/03/08 01:53:45;;;;;;;8.55;6.78;;;;;;;;;;10141314;28;20048;-75
2024/03/08 01:58:43;;;;;;;7.78;6.90;;;;;;;;;;10140977;28;20060;-77
2024/03/08 02:03:37;;;;;;;12.83;9.50;;;;;;;;;;10137281;28;20049;-76
2024/03/08 02:08:31;;;;;;;9.38;7.60;;;;;;;;;;10132827;28;20045;-75
2024/03/08 02:13:31;;;;;;;9.57;8.15;;;;;;;;;;10140789;28;20102;-76
2024/03/08 02:18:26;;;;;;;11.15;9.10;;;;;;;;;;10141033;28;20079;-76
2024/03/08 02:23:21;;;;;;;12.02;10.15;;;;;;;;;;10140272;28;20090;-76
2024/03/08 02:28:15;;;;;;;11.73;10.23;;;;;;;;;;10136098;28;20059;-76
2024/03/08 02:33:09;;;;;;;12.52;9.68;;;;;;;;;;10142090;28;20122;-76
2024/03/08 02:38:06;;;;;;;13.07;11.32;;;;;;;;;;10140102;28;21969;-76
2024/03/08 02:42:59;;;;;;;26.92;13.45;;;;;;;;;;10146848;28;20072;-76
2024/03/08 02:47:53;;;;;;;17.90;13.27;;;;;;;;;;10147448;28;20098;-76
2024/03/08 02:52:48;;;;;;;19.83;13.85;;;;;;;;;;10147666;28;20053;-76
2024/03/08 02:57:47;;;;;;;18.90;14.35;;;;;;;;;;10138430;28;20052;-76
2024/03/08 03:02:40;;;;;;;17.27;15.48;;;;;;;;;;10146740;28;20068;-76
2024/03/08 03:07:35;;;;;;;19.67;15.93;;;;;;;;;;10147127;28;20043;-76
2024/03/08 03:12:33;;;;;;;18.90;15.10;;;;;;;;;;10146558;28;20055;-76
2024/03/08 03:17:27;;;;;;;17.20;13.18;;;;;;;;;;10146787;28;20049;-76
2024/03/08 03:22:22;;;;;;;23.45;12.27;;;;;;;;;;10147158;28;20065;-76
2024/03/08 03:27:16;;;;;;;22.13;13.90;;;;;;;;;;10144000;28;20079;-77
2024/03/08 03:32:11;;;;;;;15.50;12.57;;;;;;;;;;10142856;28;20049;-77
2024/03/08 03:37:08;;;;;;;16.48;13.10;;;;;;;;;;10146744;28;20086;-77
2024/03/08 03:42:02;;;;;;;14.13;11.15;;;;;;;;;;10144467;28;20052;-77
2024/03/08 03:46:56;;;;;;;14.65;11.23;;;;;;;;;;10145279;28;20048;-76
2024/03/08 03:51:50;;;;;;;16.33;12.40;;;;;;;;;;10140195;28;20049;-76
2024/03/08 03:56:46;;;;;;;12.93;11.38;;;;;;;;;;10145580;28;20477;-77
2024/03/08 04:01:43;;;;;;;13.88;10.88;;;;;;;;;;10136992;28;20059;-77
2024/03/08 04:06:38;;;;;;;11.80;10.57;;;;;;;;;;10144219;28;20048;-76
2024/03/08 04:11:31;;;;;;;13.48;12.10;;;;;;;;;;10144444;28;20070;-77
2024/03/08 04:16:25;;;;;;;16.67;14.90;;;;;;;;;;10141083;28;20106;-76
2024/03/08 04:21:19;;;;;;;17.88;13.68;;;;;;;;;;10143002;28;20057;-77
2024/03/08 04:26:13;;;;;;;19.30;14.77;;;;;;;;;;10143261;28;20484;-76
2024/03/08 04:31:10;;;;;;;18.15;14.23;;;;;;;;;;10142959;28;20072;-77
2024/03/08 04:36:05;;;;;;;20.58;14.00;;;;;;;;;;10144135;28;20078;-77
2024/03/08 04:40:59;;;;;;;19.25;14.35;;;;;;;;;;10142444;28;20086;-78
2024/03/08 04:45:54;;;;;;;18.52;14.73;;;;;;;;;;10143349;28;20041;-77
2024/03/08 04:50:49;;;;;;;21.83;16.20;;;;;;;;;;10140874;28;20072;-76
2024/03/08 04:55:43;;;;;;;19.77;14.88;;;;;;;;;;10143246;28;20475;-77
2024/03/08 05:00:37;;;;;;;30.50;19.42;;;;;;;;;;10142560;28;20048;-77
2024/03/08 05:05:33;;;;;;;28.63;20.50;;;;;;;;;;10142172;28;20056;-77
2024/03/08 05:10:27;;;;;;;37.10;24.50;;;;;;;;;;10142390;28;20139;-77
2024/03/08 05:15:29;;;;;;;44.03;26.83;;;;;;;;;;10142408;28;20052;-76
2024/03/08 05:20:23;;;;;;;37.35;25.48;;;;;;;;;;10141512;28;20057;-76
2024/03/08 05:25:18;;;;;;;62.58;31.48;;;;;;;;;;10141485;28;20519;-77
2024/03/08 05:30:14;;;;;;;56.15;33.15;;;;;;;;;;10142291;28;20049;-77
2024/03/08 05:35:10;;;;;;;58.20;33.67;;;;;;;;;;10142314;28;20086;-77
2024/03/08 05:40:09;;;;;;;58.10;34.90;;;;;;;;;;10142773;28;20076;-77
2024/03/08 05:45:10;;;;;;;80.10;31.88;;;;;;;;;;10140967;28;20048;-75
2024/03/08 05:50:11;;;;;;;79.97;37.70;;;;;;;;;;10141435;28;20459;-77
2024/03/08 05:55:09;;;;;;;101.40;34.90;;;;;;;;;;10129272;28;20147;-80
2024/03/08 06:00:19;;;;;;;76.53;36.92;;;;;;;;;;10126475;28;20094;-80
2024/03/08 06:05:14;;;;;;;74.97;34.40;;;;;;;;;;10127809;28;20048;-79
2024/03/08 06:10:10;;;;;;;64.25;34.95;;;;;;;;;;10126916;28;20084;-79
2024/03/08 06:15:08;;;;;;;65.13;32.90;;;;;;;;;;10129540;28;20049;-79
2024/03/08 06:20:10;;;;;;;59.92;33.17;;;;;;;;;;10131330;28;20058;-79
2024/03/08 06:25:06;;;;;;;52.22;34.25;;;;;;;;;;10151693;28;20060;-78
2024/03/08 06:30:01;;;;;;;61.75;34.30;;;;;;;;;;10149586;28;20076;-80
2024/03/08 06:34:56;;;;;;;54.65;32.65;;;;;;;;;;10150539;28;20063;-80
2024/03/08 06:39:55;;;;;;;57.00;31.15;;;;;;;;;;10150416;28;20056;-81
2024/03/08 06:45:05;;;;;;;59.75;34.70;;;;;;;;;;10143188;28;20455;-80
2024/03/08 06:50:00;;;;;;;59.30;35.03;;;;;;;;;;10150483;28;20060;-77
2024/03/08 06:54:54;;;;;;;65.88;38.15;;;;;;;;;;10147964;28;20061;-77
2024/03/08 06:59:48;;;;;;;59.63;35.63;;;;;;;;;;10149972;28;20488;-77
2024/03/08 07:04:43;;;;;;;62.35;36.80;;;;;;;;;;10149787;28;20045;-77
2024/03/08 07:09:36;;;;;;;57.55;33.22;;;;;;;;;;10149446;28;20071;-76
2024/03/08 07:14:33;;;;;;;62.80;37.60;;;;;;;;;;10150420;28;20052;-76
2024/03/08 07:19:27;;;;;;;55.78;32.75;;;;;;;;;;10148804;28;20051;-76
2024/03/08 07:24:37;;;;;;;61.83;36.38;;;;;;;;;;10143805;28;20060;-76
2024/03/08 07:29:55;;;;;;;47.33;33.03;;;;;;;;;;10142634;28;20071;-76
2024/03/08 07:35:09;;;;;;;54.67;35.42;;;;;;;;;;10080756;28;20057;-77
2024/03/08 07:40:09;;;;;;;49.15;33.33;;;;;;;;;;10069691;28;20045;-76
2024/03/08 07:45:08;;;;;;;45.25;30.58;;;;;;;;;;10085503;28;20080;-77
2024/03/08 07:50:03;;;;;;;54.13;34.35;;;;;;;;;;10096860;28;20051;-76
2024/03/08 07:54:57;;;;;;;53.42;35.30;;;;;;;;;;10144863;28;20401;-77
2024/03/08 07:59:51;;;;;;;59.42;36.35;;;;;;;;;;10145208;28;20044;-77
2024/03/08 08:04:44;;;;;;;54.45;36.15;;;;;;;;;;10144380;28;20563;-77
2024/03/08 08:09:38;;;;;;;48.08;34.85;;;;;;;;;;10144644;28;20559;-77
2024/03/08 08:14:32;;;;;;;51.75;34.97;;;;;;;;;;10144371;28;20141;-77
2024/03/08 08:19:27;;;;;;;55.60;33.65;;;;;;;;;;10144396;28;20057;-77
2024/03/08 08:24:21;;;;;;;57.97;37.53;;;;;;;;;;10143827;28;20059;-77
2024/03/08 08:29:16;;;;;;;54.28;35.00;;;;;;;;;;10143727;28;20074;-76
2024/03/08 08:34:11;;;;;;;57.00;36.83;;;;;;;;;;10141779;28;20123;-77
2024/03/08 08:39:11;;;;;;;56.55;36.80;;;;;;;;;;10142327;28;20056;-77
2024/03/08 08:44:09;;;;;;;50.58;35.20;;;;;;;;;;10142842;28;20055;-77
2024/03/08 08:49:10;;;;;;;50.15;36.40;;;;;;;;;;10143089;28;20060;-77
2024/03/08 08:54:06;;;;;;;65.18;38.28;;;;;;;;;;10143111;28;20135;-76
2024/03/08 08:59:04;;;;;;;49.38;33.17;;;;;;;;;;10141420;28;20075;-77
2024/03/08 09:03:58;;;;;;;49.95;36.35;;;;;;;;;;10142568;28;20106;-76
2024/03/08 09:08:52;;;;;;;46.17;36.22;;;;;;;;;;10141206;28;20147;-76
2024/03/08 09:13:46;;;;;;;48.35;33.90;;;;;;;;;;10141351;28;20052;-77
2024/03/08 09:18:41;;;;;;;51.40;35.78;;;;;;;;;;10141838;28;20044;-77
2024/03/08 09:23:36;;;;;;;49.63;35.83;;;;;;;;;;10142531;28;20114;-76
2024/03/08 09:28:30;;;;;;;48.92;34.83;;;;;;;;;;10141866;28;20144;-76
2024/03/08 09:33:24;;;;;;;45.00;33.13;;;;;;;;;;10142129;28;20083;-77
2024/03/08 09:38:20;;;;;;;40.10;29.25;;;;;;;;;;10142350;28;20055;-77
2024/03/08 09:43:14;;;;;;;43.65;32.25;;;;;;;;;;10142805;28;20055;-76
2024/03/08 09:48:14;;;;;;;41.03;29.92;;;;;;;;;;10142155;28;20101;-76
2024/03/08 09:53:09;;;;;;;44.35;33.13;;;;;;;;;;10138623;28;20492;-76
2024/03/08 10:03:15;;;;;;;45.67;33.97;;;;;;;;;;10121503;28;20249;-76
2024/03/08 10:08:08;;;;;;;52.05;35.65;;;;;;;;;;10140372;28;20083;-77
2024/03/08 10:13:04;;;;;;;46.67;33.28;;;;;;;;;;10140960;28;20080;-76
2024/03/08 10:17:59;;;;;;;39.92;32.38;;;;;;;;;;10139357;28;20106;-76
2024/03/08 10:22:53;;;;;;;43.17;32.90;;;;;;;;;;10140965;28;20063;-76
2024/03/08 10:28:06;;;;;;;42.83;32.03;;;;;;;;;;10135487;28;20048;-76
2024/03/08 10:33:01;;;;;;;43.05;31.58;;;;;;;;;;10139747;28;20048;-76
2024/03/08 10:37:59;;;;;;;39.83;30.55;;;;;;;;;;10140204;28;20432;-77
2024/03/08 10:42:58;;;;;;;37.83;27.75;;;;;;;;;;10139168;28;20102;-75
2024/03/08 10:48:17;;;;;;;42.30;27.95;;;;;;;;;;10139837;28;20051;-76
2024/03/08 10:53:11;;;;;;;35.00;27.23;;;;;;;;;;10138781;28;20127;-76
2024/03/08 10:58:04;;;;;;;37.95;30.42;;;;;;;;;;10138576;28;20059;-76
2024/03/08 11:03:00;;;;;;;34.22;25.52;;;;;;;;;;10143468;28;20127;-75
2024/03/08 11:07:54;;;;;;;38.75;27.23;;;;;;;;;;10146748;28;20076;-76
2024/03/08 11:12:49;;;;;;;33.97;27.75;;;;;;;;;;10146686;28;20381;-76
2024/03/08 11:17:50;;;;;;;33.42;28.17;;;;;;;;;;10146510;28;20086;-76
2024/03/08 11:22:54;;;;;;;29.20;25.60;;;;;;;;;;10146162;28;20068;-76
2024/03/08 11:28:16;;;;;;;32.97;26.15;;;;;;;;;;10139601;28;20408;-76
2024/03/08 11:33:53;;;;;;;34.58;29.73;;;;;;;;;;10142568;28;20128;-76
2024/03/08 11:39:14;;;;;;;39.70;27.75;;;;;;;;;;10141737;28;20044;-76
2024/03/08 11:44:27;;;;;;;37.15;25.80;;;;;;;;;;10142850;28;20052;-76
2024/03/08 11:49:44;;;;;;;29.85;25.20;;;;;;;;;;10139532;28;20052;-76
2024/03/08 11:54:38;;;;;;;28.00;23.15;;;;;;;;;;10137331;28;20044;-75
2024/03/08 11:59:32;;;;;;;26.23;22.10;;;;;;;;;;10143351;28;20057;-76
2024/03/08 12:04:25;;;;;;;34.35;23.75;;;;;;;;;;10144273;28;20048;-75
2024/03/08 12:09:22;;;;;;;30.02;23.38;;;;;;;;;;10144278;28;20053;-76
2024/03/08 12:14:15;;;;;;;28.83;23.70;;;;;;;;;;10144681;28;20393;-76
2024/03/08 12:19:09;;;;;;;28.60;22.92;;;;;;;;;;10121864;28;20049;-76
2024/03/08 12:24:10;;;;;;;26.70;23.75;;;;;;;;;;10143333;28;20121;-76
2024/03/08 12:29:17;;;;;;;27.58;23.73;;;;;;;;;;10144183;28;20132;-76
2024/03/08 12:34:14;;;;;;;27.13;21.75;;;;;;;;;;10126161;28;20106;-77
2024/03/08 12:39:12;;;;;;;33.65;21.90;;;;;;;;;;10144968;28;20064;-77
2024/03/08 12:44:07;;;;;;;28.30;18.30;;;;;;;;;;10142720;28;20071;-77
2024/03/08 12:49:03;;;;;;;23.13;18.80;;;;;;;;;;10141812;28;20561;-77
2024/03/08 12:53:57;;;;;;;18.48;16.50;;;;;;;;;;10142853;28;20056;-78
2024/03/08 12:58:53;;;;;;;19.90;16.10;;;;;;;;;;10142514;28;20139;-77
2024/03/08 13:03:49;;;;;;;19.63;16.67;;;;;;;;;;10141259;28;20053;-76
2024/03/08 13:08:43;;;;;;;19.05;15.25;;;;;;;;;;10143022;28;20147;-76
2024/03/08 13:13:42;;;;;;;14.07;12.35;;;;;;;;;;10136397;28;20048;-76
2024/03/08 13:18:36;;;;;;;20.47;18.20;;;;;;;;;;10141287;28;20098;-75
2024/03/08 13:23:29;;;;;;;19.50;16.10;;;;;;;;;;10140344;28;20079;-76
2024/03/08 13:28:23;;;;;;;18.42;15.35;;;;;;;;;;10135900;28;20139;-76
2024/03/08 13:33:18;;;;;;;16.83;14.55;;;;;;;;;;10132358;28;20427;-76
2024/03/08 13:38:13;;;;;;;13.75;11.95;;;;;;;;;;10140777;28;20057;-76
2024/03/08 13:43:07;;;;;;;18.48;13.40;;;;;;;;;;10139824;28;20067;-76
2024/03/08 13:48:04;;;;;;;17.45;12.90;;;;;;;;;;10140234;28;20143;-76
2024/03/08 13:52:58;;;;;;;15.60;11.70;;;;;;;;;;10143267;28;20478;-76
2024/03/08 13:57:53;;;;;;;14.85;11.23;;;;;;;;;;10140135;28;20048;-76
2024/03/08 14:02:48;;;;;;;16.80;12.00;;;;;;;;;;10139872;28;20134;-77
2024/03/08 14:07:42;;;;;;;16.05;13.10;;;;;;;;;;10139687;28;20037;-77
2024/03/08 14:12:38;;;;;;;16.75;13.35;;;;;;;;;;10138635;28;20059;-77
2024/03/08 14:17:31;;;;;;;15.18;13.10;;;;;;;;;;10137059;28;20132;-77
2024/03/08 14:22:25;;;;;;;13.15;11.68;;;;;;;;;;10138539;28;20055;-77
2024/03/08 14:27:19;;;;;;;15.32;10.10;;;;;;;;;;10134892;28;20048;-77
2024/03/08 14:32:15;;;;;;;16.10;13.73;;;;;;;;;;10140643;28;20046;-77
2024/03/08 14:37:11;;;;;;;19.48;12.48;;;;;;;;;;10136713;28;20109;-77
2024/03/08 14:42:08;;;;;;;13.27;11.95;;;;;;;;;;10147461;28;20045;-77
2024/03/08 14:47:05;;;;;;;15.48;11.18;;;;;;;;;;10139876;28;20122;-77
2024/03/08 14:51:59;;;;;;;15.73;11.27;;;;;;;;;;10148082;28;20048;-77
2024/03/08 14:56:56;;;;;;;16.75;13.30;;;;;;;;;;10146874;28;20044;-77
2024/03/08 15:01:51;;;;;;;16.35;13.35;;;;;;;;;;10146736;28;20113;-77
2024/03/08 15:06:48;;;;;;;13.55;11.57;;;;;;;;;;10146575;28;20048;-77
2024/03/08 15:11:49;;;;;;;17.80;13.68;;;;;;;;;;10147007;28;20060;-77
2024/03/08 15:16:43;;;;;;;;;;;;;;;;;;10147198;28;20412;-76
2024/03/08 15:21:38;;;;;;;15.05;12.48;;;;;;;;;;10142078;28;19932;-77
2024/03/08 15:26:32;;;;;;;38.97;14.38;;;;;;;;;;10141796;28;20047;-77
2024/03/08 15:31:27;;;;;;;19.45;13.65;;;;;;;;;;10147924;28;20052;-76
2024/03/08 15:36:21;;;;;;;17.45;13.90;;;;;;;;;;10137967;28;20052;-77
2024/03/08 15:41:17;;;;;;;23.08;13.73;;;;;;;;;;10145604;28;20048;-77
2024/03/08 15:46:13;;;;;;;16.63;12.50;;;;;;;;;;10130642;28;20052;-77
2024/03/08 15:51:06;;;;;;;16.70;12.57;;;;;;;;;;10145560;28;20139;-77
2024/03/08 15:56:02;;;;;;;16.02;13.23;;;;;;;;;;10143249;28;20063;-77
2024/03/08 16:00:56;;;;;;;16.33;13.05;;;;;;;;;;10145279;28;20060;-78
2024/03/08 16:05:50;;;;;;;20.52;14.90;;;;;;;;;;10142255;28;20056;-77
2024/03/08 16:10:56;;;;;;;19.45;14.60;;;;;;;;;;10143677;28;20049;-77
2024/03/08 16:15:55;;;;;;;24.00;18.02;;;;;;;;;;10136091;28;20048;-76
2024/03/08 16:20:55;;;;;;;14.38;12.13;;;;;;;;;;10141362;28;20056;-77
2024/03/08 16:25:53;;;;;;;17.52;14.23;;;;;;;;;;10142455;28;20115;-76
2024/03/08 16:30:50;;;;;;;14.70;11.55;;;;;;;;;;10143035;28;20491;-77
2024/03/08 16:35:44;;;;;;;16.42;14.20;;;;;;;;;;10127531;28;20421;-77
2024/03/08 16:40:38;;;;;;;14.98;12.93;;;;;;;;;;10141893;28;20045;-77
2024/03/08 16:45:31;;;;;;;19.38;12.63;;;;;;;;;;10142240;28;20135;-77
2024/03/08 16:50:26;;;;;;;15.10;11.52;;;;;;;;;;10141168;28;20052;-77
2024/03/08 16:55:21;;;;;;;25.02;12.43;;;;;;;;;;10142126;28;20072;-78
2024/03/08 17:00:32;;;;;;;18.00;14.30;;;;;;;;;;10138646;28;20052;-78
2024/03/08 17:05:29;;;;;;;20.30;15.23;;;;;;;;;;10129743;28;20827;-78
2024/03/08 17:10:24;;;;;;;18.65;15.32;;;;;;;;;;10135225;28;20265;-77
2024/03/08 17:15:18;;;;;;;15.80;13.68;;;;;;;;;;10136799;28;20040;-77
2024/03/08 17:20:19;;;;;;;16.75;13.60;;;;;;;;;;10137444;28;20052;-77
2024/03/08 17:25:15;;;;;;;18.13;16.23;;;;;;;;;;10139300;28;20052;-77
2024/03/08 17:30:19;;;;;;;16.85;13.20;;;;;;;;;;10137965;28;20054;-78
2024/03/08 17:35:18;;;;;;;16.80;15.10;;;;;;;;;;10135076;28;20048;-77
2024/03/08 17:40:12;;;;;;;21.13;15.70;;;;;;;;;;10129886;28;20462;-76
2024/03/08 17:45:13;;;;;;;17.25;13.35;;;;;;;;;;10141184;28;20512;-76
2024/03/08 17:50:14;;;;;;;16.13;14.23;;;;;;;;;;10140623;28;20095;-77
2024/03/08 17:55:13;;;;;;;19.48;14.85;;;;;;;;;;10141972;28;20542;-77
2024/03/08 18:00:34;;;;;;;22.33;17.63;;;;;;;;;;10140940;28;20052;-77
2024/03/08 18:05:32;;;;;;;17.13;14.35;;;;;;;;;;10135622;28;20048;-77
2024/03/08 18:10:26;;;;;;;16.58;13.13;;;;;;;;;;10142089;28;20493;-77
2024/03/08 18:15:25;;;;;;;14.63;12.45;;;;;;;;;;10148938;28;20523;-77
2024/03/08 18:20:28;;;;;;;19.25;15.55;;;;;;;;;;10147856;28;20127;-77
2024/03/08 18:25:23;;;;;;;16.48;14.05;;;;;;;;;;10145431;28;20123;-77
2024/03/08 18:30:19;;;;;;;19.55;15.23;;;;;;;;;;10148375;28;20048;-77
2024/03/08 18:35:13;;;;;;;17.45;14.45;;;;;;;;;;10147670;28;20102;-77
2024/03/08 18:40:15;;;;;;;17.60;14.48;;;;;;;;;;10148741;28;20141;-77
2024/03/08 18:45:16;;;;;;;21.58;16.10;;;;;;;;;;10146518;28;20445;-77
2024/03/08 18:50:13;;;;;;;19.75;15.48;;;;;;;;;;10147376;28;20064;-76
2024/03/08 18:55:16;;;;;;;20.05;15.05;;;;;;;;;;10142802;28;20052;-76
2024/03/08 19:00:21;;;;;;;25.02;16.55;;;;;;;;;;10145707;28;20063;-77
2024/03/08 19:05:17;;;;;;;19.13;16.98;;;;;;;;;;10145365;28;20041;-76
2024/03/08 19:10:18;;;;;;;18.73;14.50;;;;;;;;;;10143568;28;20052;-77
2024/03/08 19:15:15;;;;;;;25.77;17.02;;;;;;;;;;10138535;28;20088;-77
2024/03/08 19:20:16;;;;;;;26.60;19.75;;;;;;;;;;10127178;28;20496;-75
2024/03/08 19:25:10;;;;;;;23.67;18.75;;;;;;;;;;10139634;28;20049;-76
2024/03/08 19:30:06;;;;;;;24.65;17.90;;;;;;;;;;10142634;28;20037;-76
2024/03/08 19:35:21;;;;;;;22.80;18.17;;;;;;;;;;10143892;28;20153;-77
2024/03/08 19:40:20;;;;;;;20.67;15.85;;;;;;;;;;10138721;28;20052;-77
2024/03/08 19:45:16;;;;;;;;;;;;;;;;;;10141460;28;20480;-78
2024/03/08 19:50:16;;;;;;;19.92;16.15;;;;;;;;;;10145407;28;19925;-78
2024/03/08 19:55:14;;;;;;;59.53;39.58;;;;;;;;;;10139713;28;20078;-77
2024/03/08 20:00:31;;;;;;;46.97;32.08;;;;;;;;;;10139887;28;20056;-78
2024/03/08 20:05:30;;;;;;;59.58;40.55;;;;;;;;;;10136932;28;20052;-78
2024/03/08 20:10:24;;;;;;;;;;;;;;;;;;10140155;28;20071;-82
2024/03/08 20:15:19;;;;;;;71.20;44.25;;;;;;;;;;10130762;28;20300;-81
2024/03/08 20:20:16;;;;;;;101.07;66.32;;;;;;;;;;10131671;28;20500;-80
2024/03/08 20:25:16;;;;;;;44.28;33.25;;;;;;;;;;10128534;28;20053;-82
2024/03/08 20:30:21;;;;;;;33.70;26.50;;;;;;;;;;10141346;28;20536;-82
2024/03/08 20:35:15;;;;;;;28.70;22.65;;;;;;;;;;10143573;28;20408;-83
2024/03/08 20:40:46;;;;;;;28.50;22.30;;;;;;;;;;10138618;28;20127;-84
2024/03/08 20:45:41;;;;;;;30.63;23.40;;;;;;;;;;10138325;28;20573;-83
2024/03/08 20:50:37;;;;;;;31.83;23.20;;;;;;;;;;10151584;28;20044;-85
2024/03/08 20:55:32;;;;;;;29.05;22.65;;;;;;;;;;10149527;28;20056;-84
2024/03/08 21:05:32;;;;;;;40.47;28.33;;;;;;;;;;10145019;28;20127;-81
2024/03/08 21:10:47;;;;;;;29.95;22.60;;;;;;;;;;10140959;28;20048;-81
2024/03/08 21:15:59;;;;;;;39.92;27.98;;;;;;;;;;10140464;28;20123;-81
2024/03/08 21:20:53;;;;;;;34.53;26.33;;;;;;;;;;10147914;28;20051;-81
2024/03/08 21:25:48;;;;;;;38.22;27.63;;;;;;;;;;10140637;28;20131;-81
2024/03/08 21:30:41;;;;;;;38.97;28.75;;;;;;;;;;10140988;28;20040;-84
2024/03/08 21:35:36;;;;;;;27.42;23.83;;;;;;;;;;10136532;28;21241;-89
2024/03/08 21:40:31;;;;;;;30.00;26.27;;;;;;;;;;10127064;28;21635;-86
2024/03/08 21:45:31;;;;;;;35.88;25.85;;;;;;;;;;10126684;28;20037;-87
2024/03/08 21:50:27;;;;;;;29.13;24.45;;;;;;;;;;10126804;28;20052;-86
2024/03/08 21:55:22;;;;;;;34.22;24.83;;;;;;;;;;10125543;28;20063;-88
2024/03/08 22:00:17;;;;;;;39.28;30.65;;;;;;;;;;10120222;28;20135;-89
2024/03/08 22:05:16;;;;;;;38.83;30.23;;;;;;;;;;10137890;28;20045;-88
2024/03/08 22:10:10;;;;;;;42.50;31.87;;;;;;;;;;10143328;28;20084;-89
2024/03/08 22:15:08;;;;;;;39.25;26.77;;;;;;;;;;10141944;28;20675;-87
2024/03/08 22:20:10;;;;;;;34.88;28.00;;;;;;;;;;10130995;28;20508;-87
2024/03/08 22:25:06;;;;;;;32.63;25.35;;;;;;;;;;10130390;28;20052;-86
2024/03/08 22:30:00;;;;;;;33.85;24.90;;;;;;;;;;10141901;28;20114;-88
2024/03/08 22:34:54;;;;;;;28.30;22.95;;;;;;;;;;10133529;28;20060;-89
2024/03/08 22:39:48;;;;;;;36.80;27.10;;;;;;;;;;10134809;28;20179;-87
2024/03/08 22:44:42;;;;;;;37.47;28.65;;;;;;;;;;10143649;28;20060;-88
2024/03/08 22:49:36;;;;;;;42.72;27.33;;;;;;;;;;10141237;28;20523;-89
2024/03/08 22:54:30;;;;;;;29.85;24.27;;;;;;;;;;10142098;28;20063;-87
2024/03/08 22:59:24;;;;;;;38.25;27.33;;;;;;;;;;10148340;28;20048;-87
2024/03/08 23:04:18;;;;;;;44.42;28.25;;;;;;;;;;10144614;28;20135;-89
2024/03/08 23:09:13;;;;;;;39.13;24.45;;;;;;;;;;10150484;28;20052;-87
2024/03/08 23:14:08;;;;;;;48.72;25.20;;;;;;;;;;10150021;28;20076;-88
2024/03/08 23:19:07;;;;;;;41.65;30.38;;;;;;;;;;10148998;28;20120;-86
2024/03/08 23:24:01;;;;;;;41.33;29.40;;;;;;;;;;10148486;28;20087;-84
2024/03/08 23:28:55;;;;;;;41.08;30.80;;;;;;;;;;10148085;28;20139;-86
2024/03/08 23:33:49;;;;;;;44.95;27.15;;;;;;;;;;10144568;28;20064;-84
2024/03/08 23:38:44;;;;;;;40.33;26.05;;;;;;;;;;10148339;28;20541;-85
2024/03/08 23:43:40;;;;;;;53.00;32.83;;;;;;;;;;10149372;28;20413;-86
2024/03/08 23:48:35;;;;;;;36.45;27.67;;;;;;;;;;10149316;28;20041;-85
2024/03/08 23:53:30;;;;;;;35.67;25.92;;;;;;;;;;10146679;28;20052;-86
2024/03/08 23:58:24;;;;;;;38.05;27.40;;;;;;;;;;10148117;28;20052;-87
